MMAA/ACA METAR and TAF weather

Enter ICAO airport designator
Station Type Date Time Source
MMAA METAR 2024/04/17 18:46 UTC NOAA

MMAA 171846Z 25011KT 8SM SKC 29/24 A2983 RMK HZY


Station Type Date Time Source
MMAA Decoded METAR 2024/04/17 18:46 UTC NOAA

Acapulco / G. Alvarez, Mexico (MMAA) 16-46N 099-45W
Apr 17, 2024 - 02:46 PM EDT / 2024.04.17 1846 UTC
Wind: from the WSW (250 degrees) at 13 MPH (11 KT):0
Visibility: 8 mile(s):0
Sky conditions: clear
Temperature: 84 F (29 C)
Dew Point: 75 F (24 C)
Relative Humidity: 74%
Pressure (altimeter): 29.83 in. Hg (1010 hPa)
ob: MMAA 171846Z 25011KT 8SM SKC 29/24 A2983 RMK HZY
cycle: 19

Station Type Date Time Source
MMAA TAF 2024/04/17 18:09 UTC NOAA